Time;durP1;ratioP1;P1;durP2;ratioP2;P2;SDS_P1;SDS_P2;PMS_P1;PMS_P2;Temp;Humidity;BMP_temperature;BMP_pressure;BME280_temperature;BME280_humidity;BME280_pressure;Samples;Min_cycle;Max_cycle;Signal;HPM_P1;HPM_P2
2022/04/05 00:01:34;;;;;;;14.98;8.93;;;;;;;;;;4951729;29;20444;-71
2022/04/05 00:04:00;;;;;;;13.90;7.68;;;;;;;;;;4951497;29;20019;-71
2022/04/05 00:06:27;;;;;;;12.38;7.43;;;;;;;;;;4950768;29;20035;-71
2022/04/05 00:08:53;;;;;;;11.88;7.07;;;;;;;;;;4953278;29;20019;-71
2022/04/05 00:11:19;;;;;;;20.75;9.68;;;;;;;;;;4953640;29;20035;-71
2022/04/05 00:13:46;;;;;;;13.10;7.45;;;;;;;;;;4953712;29;20027;-71
2022/04/05 00:16:12;;;;;;;12.35;7.93;;;;;;;;;;4951067;29;20045;-71
2022/04/05 00:18:39;;;;;;;16.17;8.57;;;;;;;;;;4950940;29;20019;-71
2022/04/05 00:21:05;;;;;;;13.25;8.40;;;;;;;;;;4936109;29;20549;-71
2022/04/05 00:23:32;;;;;;;13.10;7.55;;;;;;;;;;4952125;29;20131;-71
2022/04/05 00:25:58;;;;;;;13.35;8.60;;;;;;;;;;4951166;29;20045;-71
2022/04/05 00:28:24;;;;;;;18.70;9.00;;;;;;;;;;4950970;29;20038;-71
2022/04/05 00:30:51;;;;;;;15.68;8.93;;;;;;;;;;4950827;29;20038;-71
2022/04/05 00:33:17;;;;;;;13.70;8.70;;;;;;;;;;4950679;29;20495;-72
2022/04/05 00:35:43;;;;;;;12.82;7.75;;;;;;;;;;4953950;29;20031;-71
2022/04/05 00:38:10;;;;;;;11.35;7.43;;;;;;;;;;4951603;28;20046;-71
2022/04/05 00:40:39;;;;;;;10.80;6.65;;;;;;;;;;4943239;29;20241;-71
2022/04/05 00:43:05;;;;;;;11.23;6.97;;;;;;;;;;4950458;29;20046;-71
2022/04/05 00:45:35;;;;;;;10.82;7.10;;;;;;;;;;4950395;29;20624;-71
2022/04/05 00:48:04;;;;;;;10.10;6.57;;;;;;;;;;4951474;29;20074;-71
2022/04/05 00:50:33;;;;;;;11.68;6.72;;;;;;;;;;4953001;29;20031;-71
2022/04/05 00:53:02;;;;;;;11.52;7.20;;;;;;;;;;4951156;29;20074;-71
2022/04/05 00:55:29;;;;;;;26.13;12.25;;;;;;;;;;4950207;29;20027;-71
2022/04/05 00:57:58;;;;;;;13.23;7.43;;;;;;;;;;4950242;29;20027;-71
2022/04/05 01:00:24;;;;;;;13.82;8.63;;;;;;;;;;4950288;29;20028;-71
2022/04/05 01:02:50;;;;;;;10.98;7.30;;;;;;;;;;4952707;29;20031;-71
2022/04/05 01:05:18;;;;;;;11.32;7.20;;;;;;;;;;4952339;29;20035;-71
2022/04/05 01:07:46;;;;;;;11.68;7.22;;;;;;;;;;4950588;29;20488;-72
2022/04/05 01:10:12;;;;;;;18.35;10.32;;;;;;;;;;4950172;29;20046;-72
2022/04/05 01:12:39;;;;;;;15.80;9.38;;;;;;;;;;4950218;29;20031;-71
2022/04/05 01:15:05;;;;;;;26.17;13.13;;;;;;;;;;4950675;29;20022;-72
2022/04/05 01:17:32;;;;;;;16.15;9.60;;;;;;;;;;4953933;29;20027;-72
2022/04/05 01:19:58;;;;;;;14.20;9.07;;;;;;;;;;4950061;29;20018;-72
2022/04/05 01:22:24;;;;;;;63.60;26.88;;;;;;;;;;4949774;29;20031;-72
2022/04/05 01:24:51;;;;;;;30.77;13.30;;;;;;;;;;4949717;29;20404;-72
2022/04/05 01:27:19;;;;;;;16.80;9.10;;;;;;;;;;4949536;29;20420;-72
2022/04/05 01:29:46;;;;;;;26.50;13.05;;;;;;;;;;4953001;29;20023;-72
2022/04/05 01:32:12;;;;;;;16.77;9.23;;;;;;;;;;4951286;29;20479;-72
2022/04/05 01:34:39;;;;;;;16.30;8.43;;;;;;;;;;4941824;29;20027;-72
2022/04/05 01:37:12;;;;;;;20.13;9.63;;;;;;;;;;4949437;29;20053;-72
2022/04/05 01:39:39;;;;;;;41.80;16.35;;;;;;;;;;4949526;29;20027;-72
2022/04/05 01:42:08;;;;;;;52.55;20.23;;;;;;;;;;4950048;29;20024;-71
2022/04/05 01:44:35;;;;;;;41.28;18.25;;;;;;;;;;4953752;29;20016;-72
2022/04/05 01:47:09;;;;;;;28.05;12.82;;;;;;;;;;4950237;29;20035;-72
2022/04/05 01:49:36;;;;;;;18.00;10.07;;;;;;;;;;4948920;28;20081;-72
2022/04/05 01:52:02;;;;;;;14.15;8.80;;;;;;;;;;4948373;29;20042;-72
2022/04/05 01:54:29;;;;;;;13.50;8.68;;;;;;;;;;4949229;29;20486;-71
2022/04/05 01:56:55;;;;;;;14.02;8.80;;;;;;;;;;4951254;29;20026;-72
2022/04/05 01:59:23;;;;;;;14.93;8.38;;;;;;;;;;4951908;29;20031;-72
2022/04/05 02:01:50;;;;;;;12.70;8.40;;;;;;;;;;4949695;29;20035;-71
2022/04/05 02:04:16;;;;;;;12.20;8.60;;;;;;;;;;4949160;29;20023;-71
2022/04/05 02:06:43;;;;;;;11.90;7.80;;;;;;;;;;4948958;29;20043;-72
2022/04/05 02:09:11;;;;;;;10.23;7.25;;;;;;;;;;4949108;29;20497;-72
2022/04/05 02:11:37;;;;;;;12.75;7.80;;;;;;;;;;4953405;29;20027;-72
2022/04/05 02:14:04;;;;;;;11.70;7.63;;;;;;;;;;4950082;29;20031;-71
2022/04/05 02:16:30;;;;;;;12.45;7.57;;;;;;;;;;4948931;29;20030;-72
2022/04/05 02:18:57;;;;;;;17.13;8.65;;;;;;;;;;4948834;29;20031;-72
2022/04/05 02:21:23;;;;;;;12.10;7.70;;;;;;;;;;4948963;29;20485;-71
2022/04/05 02:23:49;;;;;;;12.25;7.65;;;;;;;;;;4951659;29;20027;-72
2022/04/05 02:26:16;;;;;;;16.10;8.38;;;;;;;;;;4950955;29;20059;-72
2022/04/05 02:28:43;;;;;;;14.38;7.68;;;;;;;;;;4949315;29;20507;-72
2022/04/05 02:31:09;;;;;;;14.73;8.20;;;;;;;;;;4949022;29;20020;-72
2022/04/05 02:33:36;;;;;;;12.55;8.27;;;;;;;;;;4948479;29;20082;-71
2022/04/05 02:36:03;;;;;;;15.73;8.30;;;;;;;;;;4949767;29;20067;-72
2022/04/05 02:38:30;;;;;;;11.65;8.05;;;;;;;;;;4952408;29;20035;-71
2022/04/05 02:41:01;;;;;;;13.20;7.85;;;;;;;;;;4949352;29;20031;-72
2022/04/05 02:43:27;;;;;;;12.25;8.02;;;;;;;;;;4948734;29;20030;-72
2022/04/05 02:45:55;;;;;;;12.00;7.60;;;;;;;;;;4948279;29;20427;-72
2022/04/05 02:48:22;;;;;;;11.80;7.63;;;;;;;;;;4948818;29;20030;-72
2022/04/05 02:50:49;;;;;;;13.15;8.70;;;;;;;;;;4951336;29;20399;-72
2022/04/05 02:53:15;;;;;;;11.65;7.60;;;;;;;;;;4950697;29;20027;-72
2022/04/05 02:55:42;;;;;;;16.10;8.77;;;;;;;;;;4949263;29;20035;-72
2022/04/05 02:58:08;;;;;;;13.35;8.18;;;;;;;;;;4945641;29;20023;-72
2022/04/05 03:00:36;;;;;;;14.15;8.55;;;;;;;;;;4948326;29;20026;-72
2022/04/05 03:03:03;;;;;;;17.40;8.70;;;;;;;;;;4951868;28;20024;-71
2022/04/05 03:05:29;;;;;;;24.20;11.95;;;;;;;;;;4955128;29;20023;-72
2022/04/05 03:07:56;;;;;;;30.48;14.30;;;;;;;;;;4952778;29;20039;-71
2022/04/05 03:10:22;;;;;;;23.63;12.05;;;;;;;;;;4952117;29;20026;-71
2022/04/05 03:12:48;;;;;;;23.55;10.35;;;;;;;;;;4952151;29;20074;-72
2022/04/05 03:15:15;;;;;;;15.13;9.48;;;;;;;;;;4951969;29;20020;-71
2022/04/05 03:17:43;;;;;;;18.65;9.88;;;;;;;;;;4955946;29;20022;-71
2022/04/05 03:20:13;;;;;;;20.08;10.43;;;;;;;;;;4953625;29;20453;-71
2022/04/05 03:22:43;;;;;;;22.33;11.15;;;;;;;;;;4955810;29;20027;-72
2022/04/05 03:25:10;;;;;;;18.17;10.65;;;;;;;;;;4951801;29;20399;-72
2022/04/05 03:27:43;;;;;;;22.38;10.93;;;;;;;;;;4951948;29;20031;-72
2022/04/05 03:30:10;;;;;;;15.88;8.32;;;;;;;;;;4940605;29;20036;-71
2022/04/05 03:32:37;;;;;;;14.70;8.88;;;;;;;;;;4956271;29;20031;-72
2022/04/05 03:35:04;;;;;;;15.07;9.00;;;;;;;;;;4952705;29;20024;-71
2022/04/05 03:37:30;;;;;;;14.18;8.38;;;;;;;;;;4952199;29;20023;-71
2022/04/05 03:39:57;;;;;;;13.02;8.10;;;;;;;;;;4939399;29;20066;-72
2022/04/05 03:42:23;;;;;;;16.67;10.35;;;;;;;;;;4951608;28;20032;-71
2022/04/05 03:44:49;;;;;;;22.23;12.38;;;;;;;;;;4954189;29;20035;-71
2022/04/05 03:47:16;;;;;;;47.28;26.02;;;;;;;;;;4953538;29;20393;-72
2022/04/05 03:49:42;;;;;;;18.65;11.43;;;;;;;;;;4952274;29;20023;-71
2022/04/05 03:52:09;;;;;;;17.05;10.48;;;;;;;;;;4951301;29;20031;-71
2022/04/05 03:54:35;;;;;;;20.83;11.32;;;;;;;;;;4951483;29;20026;-72
2022/04/05 03:57:01;;;;;;;19.10;10.43;;;;;;;;;;4952472;29;20386;-71
2022/04/05 03:59:28;;;;;;;17.40;9.60;;;;;;;;;;4954574;29;20030;-72
2022/04/05 04:01:54;;;;;;;16.67;9.57;;;;;;;;;;4951791;29;20380;-71
2022/04/05 04:04:21;;;;;;;44.63;21.58;;;;;;;;;;4951150;29;20488;-71
2022/04/05 04:06:47;;;;;;;16.70;10.05;;;;;;;;;;4951234;29;20039;-72
2022/04/05 04:09:13;;;;;;;22.48;11.52;;;;;;;;;;4951145;29;20043;-72
2022/04/05 04:11:40;;;;;;;14.10;9.20;;;;;;;;;;4954800;29;20044;-72
2022/04/05 04:14:07;;;;;;;16.05;8.45;;;;;;;;;;4950774;28;20039;-72
2022/04/05 04:16:34;;;;;;;15.23;8.63;;;;;;;;;;4951131;29;20516;-71
2022/04/05 04:19:00;;;;;;;13.10;8.13;;;;;;;;;;4951055;29;20492;-72
2022/04/05 04:21:26;;;;;;;14.63;8.60;;;;;;;;;;4950852;29;20032;-72
2022/04/05 04:23:53;;;;;;;12.88;8.48;;;;;;;;;;4953108;29;20441;-72
2022/04/05 04:26:19;;;;;;;16.20;9.15;;;;;;;;;;4953246;29;20505;-72
2022/04/05 04:28:47;;;;;;;14.68;8.30;;;;;;;;;;4955364;29;20033;-72
2022/04/05 04:31:13;;;;;;;11.70;8.07;;;;;;;;;;4950796;29;20520;-71
2022/04/05 04:33:39;;;;;;;12.57;8.50;;;;;;;;;;4950877;29;20026;-71
2022/04/05 04:36:06;;;;;;;14.02;8.95;;;;;;;;;;4951202;29;20035;-72
2022/04/05 04:38:32;;;;;;;14.77;8.77;;;;;;;;;;4950661;29;20514;-72
2022/04/05 04:40:58;;;;;;;14.07;8.32;;;;;;;;;;4951180;29;20023;-72
2022/04/05 04:43:27;;;;;;;15.13;9.63;;;;;;;;;;4937431;29;20113;-71
2022/04/05 04:45:54;;;;;;;14.73;9.35;;;;;;;;;;4950408;29;20034;-72
2022/04/05 04:48:20;;;;;;;14.20;8.65;;;;;;;;;;4950735;29;20031;-72
2022/04/05 04:50:49;;;;;;;15.57;9.27;;;;;;;;;;4953553;29;20031;-71
2022/04/05 04:53:15;;;;;;;15.02;8.68;;;;;;;;;;4951021;29;20507;-71
2022/04/05 04:55:42;;;;;;;14.65;9.02;;;;;;;;;;4950748;29;20028;-71
2022/04/05 04:58:08;;;;;;;14.05;8.98;;;;;;;;;;4949757;29;20105;-71
2022/04/05 05:00:35;;;;;;;24.40;12.82;;;;;;;;;;4950178;29;20620;-71
2022/04/05 05:03:01;;;;;;;15.88;9.35;;;;;;;;;;4951234;29;20034;-72
2022/04/05 05:05:28;;;;;;;41.08;18.17;;;;;;;;;;4953584;29;20026;-71
2022/04/05 05:07:54;;;;;;;20.98;10.68;;;;;;;;;;4950928;29;20035;-72
2022/04/05 05:10:23;;;;;;;16.48;9.43;;;;;;;;;;4949999;29;20039;-71
2022/04/05 05:12:50;;;;;;;19.83;10.32;;;;;;;;;;4949766;29;20031;-71
2022/04/05 05:15:17;;;;;;;17.33;10.23;;;;;;;;;;4949966;29;20507;-72
2022/04/05 05:17:44;;;;;;;15.40;9.20;;;;;;;;;;4953305;29;20035;-71
2022/04/05 05:20:11;;;;;;;12.98;8.77;;;;;;;;;;4951335;29;20388;-71
2022/04/05 05:22:39;;;;;;;19.52;9.45;;;;;;;;;;4953404;29;20038;-71
2022/04/05 05:25:05;;;;;;;14.25;8.40;;;;;;;;;;4936686;29;20031;-71
2022/04/05 05:27:32;;;;;;;13.30;8.57;;;;;;;;;;4949229;29;20411;-72
2022/04/05 05:30:00;;;;;;;18.48;10.02;;;;;;;;;;4950919;29;20054;-71
2022/04/05 05:32:26;;;;;;;21.20;11.88;;;;;;;;;;4952892;29;20046;-71
2022/04/05 05:34:53;;;;;;;15.93;10.63;;;;;;;;;;4950273;29;20483;-71
2022/04/05 05:37:19;;;;;;;17.65;10.90;;;;;;;;;;4949766;29;20023;-72
2022/04/05 05:39:46;;;;;;;17.85;11.07;;;;;;;;;;4949572;29;20019;-72
2022/04/05 05:42:13;;;;;;;19.48;10.38;;;;;;;;;;4949348;29;20034;-71
2022/04/05 05:44:39;;;;;;;16.80;10.40;;;;;;;;;;4953315;29;20399;-73
2022/04/05 05:47:06;;;;;;;16.45;9.80;;;;;;;;;;4950381;29;20485;-71
2022/04/05 05:49:32;;;;;;;18.30;9.43;;;;;;;;;;4953611;29;20031;-72
2022/04/05 05:51:59;;;;;;;16.50;10.02;;;;;;;;;;4948644;29;20023;-72
2022/04/05 05:54:25;;;;;;;16.52;10.88;;;;;;;;;;4948984;29;20030;-72
2022/04/05 05:56:51;;;;;;;16.75;10.40;;;;;;;;;;4951919;29;20033;-72
2022/04/05 05:59:18;;;;;;;20.95;11.57;;;;;;;;;;4951458;29;20031;-72
2022/04/05 06:01:44;;;;;;;25.02;13.27;;;;;;;;;;4949520;29;20392;-72
2022/04/05 06:04:10;;;;;;;29.98;14.07;;;;;;;;;;4938579;29;20027;-71
2022/04/05 06:06:37;;;;;;;25.90;13.70;;;;;;;;;;4949211;29;20050;-71
2022/04/05 06:09:03;;;;;;;22.40;12.50;;;;;;;;;;4949506;29;20016;-72
2022/04/05 06:11:29;;;;;;;22.13;13.18;;;;;;;;;;4952740;29;20027;-71
2022/04/05 06:13:56;;;;;;;28.33;12.55;;;;;;;;;;4949499;29;20107;-71
2022/04/05 06:16:22;;;;;;;25.13;12.80;;;;;;;;;;4946991;29;20440;-72
2022/04/05 06:18:48;;;;;;;19.08;11.43;;;;;;;;;;4947299;29;20023;-72
2022/04/05 06:21:15;;;;;;;20.00;10.38;;;;;;;;;;4950972;29;20036;-71
2022/04/05 06:23:42;;;;;;;19.98;11.32;;;;;;;;;;4951960;29;20078;-72
2022/04/05 06:26:08;;;;;;;18.17;11.63;;;;;;;;;;4949477;28;20061;-72
2022/04/05 06:28:34;;;;;;;17.73;11.00;;;;;;;;;;4946166;29;20047;-72
2022/04/05 06:31:01;;;;;;;18.50;10.73;;;;;;;;;;4951997;29;20034;-72
2022/04/05 06:33:27;;;;;;;23.27;10.63;;;;;;;;;;4951990;29;20032;-72
2022/04/05 06:35:56;;;;;;;19.42;11.10;;;;;;;;;;4950571;29;20031;-72
2022/04/05 06:38:22;;;;;;;20.38;11.45;;;;;;;;;;4953780;29;20019;-72
2022/04/05 06:40:49;;;;;;;20.13;11.65;;;;;;;;;;4952237;29;20031;-72
2022/04/05 06:43:16;;;;;;;20.65;11.73;;;;;;;;;;4952024;29;20035;-72
2022/04/05 06:45:43;;;;;;;17.85;10.98;;;;;;;;;;4954425;29;20031;-72
2022/04/05 06:48:09;;;;;;;25.30;13.30;;;;;;;;;;4955927;29;20031;-72
2022/04/05 06:50:36;;;;;;;17.33;10.45;;;;;;;;;;4956470;29;20507;-72
2022/04/05 06:53:03;;;;;;;19.70;11.15;;;;;;;;;;4956675;29;20019;-72
2022/04/05 06:55:29;;;;;;;18.23;10.20;;;;;;;;;;4955622;29;20031;-72
2022/04/05 06:57:56;;;;;;;15.38;9.57;;;;;;;;;;4951282;29;20035;-72
2022/04/05 07:00:23;;;;;;;13.52;8.90;;;;;;;;;;4955437;29;20028;-72
2022/04/05 07:02:51;;;;;;;15.70;8.90;;;;;;;;;;4955293;29;20043;-71
2022/04/05 07:05:17;;;;;;;12.57;8.13;;;;;;;;;;4956224;29;20396;-72
2022/04/05 07:07:43;;;;;;;15.18;8.27;;;;;;;;;;4951942;29;20039;-72
2022/04/05 07:10:11;;;;;;;15.35;8.35;;;;;;;;;;4951511;29;20031;-72
2022/04/05 07:12:37;;;;;;;13.90;9.05;;;;;;;;;;4954651;29;20045;-72
2022/04/05 07:15:05;;;;;;;13.98;8.05;;;;;;;;;;4937980;29;20035;-72
2022/04/05 07:17:31;;;;;;;13.15;8.23;;;;;;;;;;4955599;29;20019;-72
2022/04/05 07:19:57;;;;;;;13.80;8.80;;;;;;;;;;4956089;29;20035;-72
2022/04/05 07:22:25;;;;;;;16.65;8.65;;;;;;;;;;4950652;29;20039;-72
2022/04/05 07:24:52;;;;;;;13.15;8.73;;;;;;;;;;4949664;29;20023;-72
2022/04/05 07:27:18;;;;;;;11.40;8.85;;;;;;;;;;4954809;29;20508;-72
2022/04/05 07:29:45;;;;;;;13.50;8.65;;;;;;;;;;4954388;29;20105;-73
2022/04/05 07:32:11;;;;;;;15.13;8.70;;;;;;;;;;4952720;29;20031;-73
2022/04/05 07:34:37;;;;;;;13.40;8.32;;;;;;;;;;4951026;29;20023;-72
2022/04/05 07:37:04;;;;;;;12.32;8.25;;;;;;;;;;4951068;29;20480;-72
2022/04/05 07:39:30;;;;;;;10.88;8.35;;;;;;;;;;4952377;29;20043;-72
2022/04/05 07:41:57;;;;;;;12.05;8.65;;;;;;;;;;4952806;29;20284;-72
2022/04/05 07:44:24;;;;;;;11.40;8.57;;;;;;;;;;4953591;29;20031;-72
2022/04/05 07:46:50;;;;;;;11.15;8.40;;;;;;;;;;4954790;29;20035;-72
2022/04/05 07:49:17;;;;;;;11.20;8.25;;;;;;;;;;4954333;28;20037;-72
2022/04/05 07:51:43;;;;;;;11.95;8.57;;;;;;;;;;4937935;29;20078;-72
2022/04/05 07:54:10;;;;;;;11.82;8.52;;;;;;;;;;4945663;29;20043;-72
2022/04/05 07:56:36;;;;;;;11.65;8.48;;;;;;;;;;4945603;29;20030;-72
2022/04/05 07:59:02;;;;;;;18.58;8.43;;;;;;;;;;4953819;29;20024;-72
2022/04/05 08:01:29;;;;;;;12.18;9.00;;;;;;;;;;4944054;29;20508;-72
2022/04/05 08:03:56;;;;;;;13.75;9.13;;;;;;;;;;4947475;29;20024;-72
2022/04/05 08:06:27;;;;;;;13.90;8.52;;;;;;;;;;4944952;29;20550;-71
2022/04/05 08:08:53;;;;;;;9.52;7.78;;;;;;;;;;4953346;29;20089;-71
2022/04/05 08:11:20;;;;;;;12.65;8.32;;;;;;;;;;4952788;29;20031;-71
2022/04/05 08:13:46;;;;;;;14.15;8.05;;;;;;;;;;4955166;29;20031;-72
2022/04/05 08:16:12;;;;;;;12.27;7.65;;;;;;;;;;4937465;29;20124;-69
2022/04/05 08:18:39;;;;;;;12.88;9.38;;;;;;;;;;4950625;29;20508;-69
2022/04/05 08:21:05;;;;;;;17.48;9.02;;;;;;;;;;4951008;29;20416;-71
2022/04/05 08:23:31;;;;;;;17.30;8.98;;;;;;;;;;4951837;28;20081;-71
2022/04/05 08:25:58;;;;;;;15.57;9.45;;;;;;;;;;4947733;29;20066;-71
2022/04/05 08:28:26;;;;;;;11.13;8.55;;;;;;;;;;4945249;28;20034;-69
2022/04/05 08:30:52;;;;;;;12.85;8.20;;;;;;;;;;4946727;29;20515;-71
2022/04/05 08:33:18;;;;;;;15.00;9.45;;;;;;;;;;4948971;29;20024;-72
2022/04/05 08:35:45;;;;;;;16.02;9.18;;;;;;;;;;4944954;29;20019;-71
2022/04/05 08:38:11;;;;;;;11.88;9.30;;;;;;;;;;4950887;29;20035;-71
2022/04/05 08:40:37;;;;;;;12.25;8.57;;;;;;;;;;4949427;29;20037;-71
2022/04/05 08:43:04;;;;;;;12.60;9.00;;;;;;;;;;4950375;29;20024;-71
2022/04/05 08:45:30;;;;;;;14.45;9.18;;;;;;;;;;4945592;29;20037;-72
2022/04/05 08:47:57;;;;;;;13.75;9.25;;;;;;;;;;4948748;29;20085;-72
2022/04/05 08:50:26;;;;;;;13.88;9.45;;;;;;;;;;4944083;29;20023;-72
2022/04/05 08:52:54;;;;;;;13.05;8.75;;;;;;;;;;4944840;29;20038;-69
2022/04/05 08:55:21;;;;;;;11.60;8.13;;;;;;;;;;4946381;29;20020;-72
2022/04/05 08:57:47;;;;;;;11.90;8.27;;;;;;;;;;4929145;29;20035;-72
2022/04/05 09:00:15;;;;;;;13.00;7.72;;;;;;;;;;4943787;28;20026;-72
2022/04/05 09:02:58;;;;;;;10.40;7.55;;;;;;;;;;4952753;29;20038;-69
2022/04/05 09:05:32;;;;;;;13.30;7.50;;;;;;;;;;4953005;29;20050;-71
2022/04/05 09:08:12;;;;;;;12.70;7.68;;;;;;;;;;4937044;29;20082;-71
2022/04/05 09:10:39;;;;;;;10.93;8.38;;;;;;;;;;4941881;29;20026;-71
2022/04/05 09:13:05;;;;;;;12.45;7.13;;;;;;;;;;4944944;29;20101;-71
2022/04/05 09:15:34;;;;;;;11.73;7.90;;;;;;;;;;4942545;29;20023;-71
2022/04/05 09:18:01;;;;;;;10.63;7.68;;;;;;;;;;4950086;29;20425;-72
2022/04/05 09:20:27;;;;;;;11.27;8.02;;;;;;;;;;4951597;29;20035;-71
2022/04/05 09:22:54;;;;;;;8.52;7.47;;;;;;;;;;4953835;29;20030;-71
2022/04/05 09:25:21;;;;;;;8.85;6.90;;;;;;;;;;4952781;29;20559;-71
2022/04/05 09:27:49;;;;;;;10.20;7.00;;;;;;;;;;4949480;29;20035;-71
2022/04/05 09:30:16;;;;;;;12.38;7.45;;;;;;;;;;4948791;29;20028;-71
2022/04/05 09:32:47;;;;;;;10.70;6.88;;;;;;;;;;4935496;29;20054;-70
2022/04/05 09:35:14;;;;;;;8.00;6.63;;;;;;;;;;4953066;29;20035;-72
2022/04/05 09:37:41;;;;;;;10.68;7.13;;;;;;;;;;4960288;28;20039;-73
2022/04/05 09:40:19;;;;;;;11.13;6.90;;;;;;;;;;4943644;29;20066;-72
2022/04/05 09:43:05;;;;;;;8.60;6.70;;;;;;;;;;4946983;29;20027;-72
2022/04/05 09:45:44;;;;;;;9.60;7.40;;;;;;;;;;4949085;29;20027;-72
2022/04/05 09:48:11;;;;;;;7.80;6.40;;;;;;;;;;4952222;29;20033;-72
2022/04/05 09:50:59;;;;;;;11.30;6.80;;;;;;;;;;4952208;29;20029;-71
2022/04/05 09:53:35;;;;;;;12.52;6.97;;;;;;;;;;4951782;29;20536;-71
2022/04/05 09:56:02;;;;;;;8.98;6.57;;;;;;;;;;4948673;29;20039;-72
2022/04/05 09:58:29;;;;;;;14.30;10.15;;;;;;;;;;4944850;29;20586;-72
2022/04/05 10:01:04;;;;;;;11.43;6.93;;;;;;;;;;4949133;29;20512;-72
2022/04/05 10:03:30;;;;;;;7.57;6.22;;;;;;;;;;4947879;29;20043;-71
2022/04/05 10:05:57;;;;;;;7.53;6.45;;;;;;;;;;4944672;29;20028;-71
2022/04/05 10:08:23;;;;;;;7.47;6.53;;;;;;;;;;4951337;29;20023;-71
2022/04/05 10:10:50;;;;;;;8.75;6.35;;;;;;;;;;4939157;29;20523;-71
2022/04/05 10:13:17;;;;;;;15.65;6.50;;;;;;;;;;4945821;29;20035;-71
2022/04/05 10:15:47;;;;;;;8.02;6.70;;;;;;;;;;4948127;29;20015;-71
2022/04/05 10:18:15;;;;;;;9.85;6.80;;;;;;;;;;4948715;29;20038;-71
2022/04/05 10:20:42;;;;;;;9.75;7.68;;;;;;;;;;4951667;29;20038;-72
2022/04/05 10:23:09;;;;;;;10.30;6.60;;;;;;;;;;4949711;29;20019;-72
2022/04/05 10:25:36;;;;;;;10.77;7.20;;;;;;;;;;4943930;29;20051;-71
2022/04/05 10:28:02;;;;;;;10.40;6.18;;;;;;;;;;4943041;29;20034;-71
2022/04/05 10:30:41;;;;;;;10.00;6.78;;;;;;;;;;4945832;29;20038;-72
2022/04/05 10:33:12;;;;;;;9.30;6.80;;;;;;;;;;4948498;29;20028;-71
2022/04/05 10:36:05;;;;;;;11.25;6.43;;;;;;;;;;4939049;29;20026;-71
2022/04/05 10:38:31;;;;;;;9.00;6.13;;;;;;;;;;4945228;29;20397;-71
2022/04/05 10:41:17;;;;;;;11.07;7.70;;;;;;;;;;4948750;29;20031;-69
2022/04/05 10:43:44;;;;;;;10.32;7.82;;;;;;;;;;4952472;29;20489;-70
2022/04/05 10:46:11;;;;;;;8.18;7.13;;;;;;;;;;4948255;29;20031;-68
2022/04/05 10:48:53;;;;;;;8.02;6.50;;;;;;;;;;4948411;29;20127;-71
2022/04/05 10:51:30;;;;;;;6.97;5.72;;;;;;;;;;4948137;29;20020;-71
2022/04/05 10:54:18;;;;;;;7.90;5.25;;;;;;;;;;4950293;29;20019;-72
2022/04/05 10:57:04;;;;;;;7.80;5.07;;;;;;;;;;4936324;29;20342;-71
2022/04/05 10:59:46;;;;;;;8.68;4.82;;;;;;;;;;4952292;29;20508;-71
2022/04/05 11:02:32;;;;;;;6.35;5.13;;;;;;;;;;4952677;29;20033;-71
2022/04/05 11:05:04;;;;;;;7.70;4.80;;;;;;;;;;4948625;29;20519;-71
2022/04/05 11:07:50;;;;;;;5.57;4.80;;;;;;;;;;4948376;29;20027;-71
2022/04/05 11:10:18;;;;;;;5.80;4.82;;;;;;;;;;4942370;28;20038;-71
2022/04/05 11:12:45;;;;;;;14.85;7.82;;;;;;;;;;4944482;29;20510;-71
2022/04/05 11:15:14;;;;;;;8.88;5.00;;;;;;;;;;4942531;29;20023;-72
2022/04/05 11:17:42;;;;;;;8.60;5.35;;;;;;;;;;4942547;29;20035;-71
2022/04/05 11:20:10;;;;;;;7.80;4.30;;;;;;;;;;4948969;29;20020;-71
2022/04/05 11:22:37;;;;;;;6.45;3.00;;;;;;;;;;4948362;28;20415;-71
2022/04/05 11:25:05;;;;;;;3.83;3.08;;;;;;;;;;4951397;29;20034;-71
2022/04/05 11:27:44;;;;;;;4.18;3.13;;;;;;;;;;4951361;29;20041;-71
2022/04/05 11:30:26;;;;;;;6.47;2.75;;;;;;;;;;4951090;29;20028;-71
2022/04/05 11:33:17;;;;;;;7.18;3.38;;;;;;;;;;4951852;29;20037;-71
2022/04/05 11:35:43;;;;;;;;;;;;;;;;;;4941074;29;20030;-71
2022/04/05 11:38:28;;;;;;;5.07;3.55;;;;;;;;;;4952417;29;19917;-71
2022/04/05 11:40:58;;;;;;;6.88;4.20;;;;;;;;;;4957308;28;20035;-72
2022/04/05 11:43:31;;;;;;;5.78;3.40;;;;;;;;;;4950837;29;20023;-71
2022/04/05 11:46:00;;;;;;;4.55;3.53;;;;;;;;;;4950988;29;20435;-70
2022/04/05 11:48:27;;;;;;;9.63;4.15;;;;;;;;;;4951048;29;20035;-71
2022/04/05 11:50:54;;;;;;;7.95;4.82;;;;;;;;;;4953108;29;20026;-71
2022/04/05 11:53:24;;;;;;;6.78;3.55;;;;;;;;;;4952796;29;20035;-72
2022/04/05 11:56:22;;;;;;;3.92;3.10;;;;;;;;;;4953830;29;20047;-71
2022/04/05 11:58:56;;;;;;;7.60;3.38;;;;;;;;;;4877639;29;20041;-71
2022/04/05 12:01:36;;;;;;;7.60;3.92;;;;;;;;;;4877021;29;20482;-71
2022/04/05 12:04:10;;;;;;;6.00;3.15;;;;;;;;;;4877372;29;20029;-71
2022/04/05 12:06:38;;;;;;;5.75;3.03;;;;;;;;;;4877170;29;20032;-71
2022/04/05 12:09:07;;;;;;;3.88;2.45;;;;;;;;;;4876653;29;20041;-71
2022/04/05 12:11:34;;;;;;;4.93;3.03;;;;;;;;;;4876597;29;20033;-71
2022/04/05 12:14:09;;;;;;;3.95;2.90;;;;;;;;;;4877277;29;20330;-71
2022/04/05 12:16:52;;;;;;;8.30;3.35;;;;;;;;;;4876869;29;20418;-71
2022/04/05 12:19:19;;;;;;;5.13;3.30;;;;;;;;;;4876859;29;20029;-71
2022/04/05 12:21:46;;;;;;;5.60;4.00;;;;;;;;;;4876696;29;20043;-70
2022/04/05 12:24:14;;;;;;;6.13;3.65;;;;;;;;;;4877040;29;20029;-70
2022/04/05 12:26:40;;;;;;;2.97;2.67;;;;;;;;;;4876373;29;20439;-70
2022/04/05 12:29:08;;;;;;;4.28;2.78;;;;;;;;;;4877391;29;20063;-71
2022/04/05 12:31:34;;;;;;;4.05;2.78;;;;;;;;;;4869209;29;20077;-71
2022/04/05 12:34:05;;;;;;;4.18;3.17;;;;;;;;;;4902896;28;20043;-70
2022/04/05 12:36:33;;;;;;;3.78;2.78;;;;;;;;;;4949935;29;20023;-70
2022/04/05 12:39:00;;;;;;;4.93;3.17;;;;;;;;;;4951846;29;20509;-71
2022/04/05 12:41:27;;;;;;;5.78;2.90;;;;;;;;;;4952963;29;20085;-71
2022/04/05 12:44:12;;;;;;;3.55;2.65;;;;;;;;;;4950880;29;20050;-70
2022/04/05 12:46:40;;;;;;;4.60;3.10;;;;;;;;;;4950207;29;20484;-70
2022/04/05 12:49:13;;;;;;;5.40;2.90;;;;;;;;;;4950155;29;20031;-70
2022/04/05 12:51:40;;;;;;;3.03;2.72;;;;;;;;;;4949826;29;20023;-70
2022/04/05 12:54:06;;;;;;;3.00;2.58;;;;;;;;;;4953743;29;20027;-71
2022/04/05 12:56:35;;;;;;;3.05;2.53;;;;;;;;;;4953783;29;20041;-71
2022/04/05 12:59:05;;;;;;;4.47;2.47;;;;;;;;;;4949444;29;20031;-71
2022/04/05 13:01:31;;;;;;;6.05;2.28;;;;;;;;;;4952379;29;20027;-71
2022/04/05 13:03:58;;;;;;;5.05;2.40;;;;;;;;;;4949923;29;20041;-70
2022/04/05 13:06:29;;;;;;;2.22;1.88;;;;;;;;;;4949450;29;20019;-71
2022/04/05 13:09:06;;;;;;;5.25;1.90;;;;;;;;;;4941836;29;20043;-71
2022/04/05 13:11:33;;;;;;;2.53;1.50;;;;;;;;;;4953357;29;20027;-71
2022/04/05 13:14:02;;;;;;;1.75;1.65;;;;;;;;;;4945823;29;20031;-71
2022/04/05 13:16:28;;;;;;;3.45;2.05;;;;;;;;;;4945450;29;20026;-71
2022/04/05 13:19:05;;;;;;;4.30;2.17;;;;;;;;;;4950369;29;20522;-71
2022/04/05 13:21:39;;;;;;;2.88;2.03;;;;;;;;;;4949184;29;20460;-71
2022/04/05 13:24:07;;;;;;;2.92;2.05;;;;;;;;;;4951651;29;20035;-71
2022/04/05 13:26:33;;;;;;;3.75;2.40;;;;;;;;;;4950219;29;20047;-70
2022/04/05 13:29:09;;;;;;;5.15;3.00;;;;;;;;;;4949461;29;20042;-71
2022/04/05 13:31:41;;;;;;;4.53;2.30;;;;;;;;;;4950990;29;20023;-71
2022/04/05 13:34:09;;;;;;;5.45;2.30;;;;;;;;;;4949099;29;20030;-70
2022/04/05 13:36:36;;;;;;;4.97;2.30;;;;;;;;;;4949028;29;20497;-70
2022/04/05 13:39:02;;;;;;;5.18;2.30;;;;;;;;;;4950030;29;20526;-70
2022/04/05 13:41:28;;;;;;;2.75;1.90;;;;;;;;;;4951135;29;20493;-70
2022/04/05 13:43:56;;;;;;;3.30;2.28;;;;;;;;;;4949613;29;20027;-70
2022/04/05 13:46:22;;;;;;;15.80;8.63;;;;;;;;;;4948778;28;20023;-71
2022/04/05 13:48:49;;;;;;;8.70;5.43;;;;;;;;;;4941061;29;20031;-70
2022/04/05 13:51:16;;;;;;;3.40;1.52;;;;;;;;;;4948497;29;20039;-70
2022/04/05 13:53:42;;;;;;;3.22;1.95;;;;;;;;;;4952490;29;20031;-70
2022/04/05 13:56:09;;;;;;;5.00;1.98;;;;;;;;;;4950100;29;20037;-71
2022/04/05 13:58:36;;;;;;;2.42;1.83;;;;;;;;;;4953230;29;20038;-71
2022/04/05 14:01:02;;;;;;;2.80;2.22;;;;;;;;;;4947815;29;20030;-71
2022/04/05 14:03:30;;;;;;;6.93;2.40;;;;;;;;;;4937139;29;20128;-70
2022/04/05 14:05:56;;;;;;;3.92;2.38;;;;;;;;;;4950937;29;20027;-70
2022/04/05 14:08:23;;;;;;;3.42;2.53;;;;;;;;;;4951070;29;20039;-71
2022/04/05 14:10:49;;;;;;;2.45;1.70;;;;;;;;;;4967022;28;20023;-71
2022/04/05 14:13:15;;;;;;;3.92;2.03;;;;;;;;;;4941059;29;20027;-70
2022/04/05 14:15:42;;;;;;;3.85;2.00;;;;;;;;;;4942325;29;20395;-71
2022/04/05 14:18:08;;;;;;;2.13;1.85;;;;;;;;;;4948894;29;20448;-71
2022/04/05 14:20:34;;;;;;;3.15;2.20;;;;;;;;;;4952376;29;20485;-71
2022/04/05 14:23:01;;;;;;;3.55;2.60;;;;;;;;;;4948387;29;20495;-70
2022/04/05 14:25:27;;;;;;;4.10;2.25;;;;;;;;;;4939846;29;20031;-70
2022/04/05 14:27:54;;;;;;;5.25;2.67;;;;;;;;;;4940547;29;20055;-71
2022/04/05 14:30:20;;;;;;;3.58;2.20;;;;;;;;;;4948277;29;20038;-70
2022/04/05 14:32:46;;;;;;;6.20;2.33;;;;;;;;;;4951992;29;20034;-71
2022/04/05 14:35:13;;;;;;;7.57;2.80;;;;;;;;;;4949424;29;20039;-70
2022/04/05 14:37:41;;;;;;;6.70;2.50;;;;;;;;;;4948372;29;20112;-70